createdAt,value
2018-12-06T00:00:49.007Z,7.13
2018-12-06T00:03:29.896Z,7.17
2018-12-06T00:06:00.075Z,7.20
2018-12-06T00:08:29.269Z,7.26
2018-12-06T00:11:03.158Z,7.23
2018-12-06T00:13:31.859Z,7.24
2018-12-06T00:16:01.519Z,7.29
2018-12-06T00:18:38.868Z,7.29
2018-12-06T00:21:14.504Z,7.38
2018-12-06T00:23:45.819Z,7.32
2018-12-06T00:26:17.367Z,7.24
2018-12-06T00:28:45.409Z,7.20
2018-12-06T00:31:13.495Z,7.20
2018-12-06T00:33:41.582Z,7.12
2018-12-06T00:36:09.719Z,7.10
2018-12-06T00:38:37.883Z,7.13
2018-12-06T00:41:05.955Z,7.19
2018-12-06T00:43:34.127Z,7.12
2018-12-06T00:46:02.210Z,7.05
2018-12-06T00:48:30.287Z,7.03
2018-12-06T00:50:58.380Z,7.03
2018-12-06T00:53:26.552Z,7.01
2018-12-06T00:55:54.762Z,6.85
2018-12-06T00:58:24.037Z,6.89
2018-12-06T01:00:52.174Z,6.81
2018-12-06T01:03:20.332Z,6.76
2018-12-06T01:05:48.548Z,6.78
2018-12-06T01:08:16.716Z,6.90
2018-12-06T01:10:44.962Z,6.82
2018-12-06T01:13:13.064Z,6.90
2018-12-06T01:15:41.202Z,6.82
2018-12-06T01:18:09.349Z,6.76
2018-12-06T01:20:37.574Z,6.65
2018-12-06T01:23:05.806Z,6.71
2018-12-06T01:25:33.998Z,6.75
2018-12-06T01:28:02.119Z,6.68
2018-12-06T01:30:30.277Z,6.67
2018-12-06T01:32:58.465Z,6.79
2018-12-06T01:35:26.537Z,6.76
2018-12-06T01:37:54.605Z,6.77
2018-12-06T01:40:22.694Z,6.76
2018-12-06T01:42:50.839Z,6.74
2018-12-06T01:45:18.925Z,6.79
2018-12-06T01:47:47.090Z,6.83
2018-12-06T01:50:15.251Z,6.91
2018-12-06T01:52:43.327Z,6.98
2018-12-06T01:55:11.505Z,6.89
2018-12-06T01:57:39.639Z,6.85
2018-12-06T02:00:08.472Z,6.85
2018-12-06T02:02:36.519Z,6.77
2018-12-06T02:05:04.946Z,6.76
2018-12-06T02:07:33.261Z,6.78
2018-12-06T02:10:01.357Z,6.73
2018-12-06T02:12:29.422Z,6.89
2018-12-06T02:14:57.470Z,6.81
2018-12-06T02:17:25.617Z,6.83
2018-12-06T02:19:53.781Z,6.78
2018-12-06T02:22:21.954Z,6.81
2018-12-06T02:24:50.121Z,6.80
2018-12-06T02:27:18.253Z,6.71
2018-12-06T02:29:51.673Z,6.82
2018-12-06T02:32:19.922Z,6.80
2018-12-06T02:34:47.998Z,6.68
2018-12-06T02:37:16.336Z,6.63
2018-12-06T02:39:44.492Z,6.60
2018-12-06T02:42:12.678Z,6.81
2018-12-06T02:44:40.814Z,6.86
2018-12-06T02:47:08.955Z,6.80
2018-12-06T02:49:37.037Z,6.89
2018-12-06T02:52:05.275Z,6.95
2018-12-06T02:54:33.357Z,6.87
2018-12-06T02:57:01.512Z,6.96
2018-12-06T02:59:29.634Z,7.02
2018-12-06T03:01:57.781Z,6.89
2018-12-06T03:04:25.877Z,6.82
2018-12-06T03:06:54.133Z,6.75
2018-12-06T03:09:22.268Z,6.78
2018-12-06T03:11:50.346Z,6.73
2018-12-06T03:14:18.402Z,6.73
2018-12-06T03:16:46.686Z,6.70
2018-12-06T03:19:14.835Z,6.76
2018-12-06T03:21:42.977Z,6.70
2018-12-06T03:24:11.038Z,6.80
2018-12-06T03:26:39.179Z,6.80
2018-12-06T03:29:07.382Z,6.90
2018-12-06T03:31:35.474Z,6.83
2018-12-06T03:34:03.747Z,6.84
2018-12-06T03:36:31.831Z,6.88
2018-12-06T03:38:59.881Z,6.83
2018-12-06T03:41:27.956Z,6.71
2018-12-06T03:43:56.115Z,6.71
2018-12-06T03:46:24.181Z,6.81
2018-12-06T03:48:52.327Z,6.94
2018-12-06T03:51:20.463Z,6.93
2018-12-06T03:53:48.526Z,6.83
2018-12-06T03:56:16.750Z,6.80
2018-12-06T03:58:44.851Z,6.82
2018-12-06T04:01:13.024Z,6.92
2018-12-06T04:03:41.170Z,6.82
2018-12-06T04:06:09.397Z,6.79
2018-12-06T04:08:37.547Z,6.76
2018-12-06T04:11:05.696Z,6.67
2018-12-06T04:13:33.845Z,6.57
2018-12-06T04:16:01.917Z,6.59
2018-12-06T04:18:29.989Z,6.62
2018-12-06T04:20:58.129Z,6.58
2018-12-06T04:23:26.224Z,6.70
2018-12-06T04:25:54.328Z,6.72
2018-12-06T04:28:22.488Z,6.74
2018-12-06T04:30:50.661Z,6.90
2018-12-06T04:33:18.753Z,6.77
2018-12-06T04:35:46.845Z,6.91
2018-12-06T04:38:14.931Z,6.91
2018-12-06T04:40:43.013Z,6.88
2018-12-06T04:43:11.202Z,6.85
2018-12-06T04:45:39.381Z,6.78
2018-12-06T04:48:07.650Z,6.75
2018-12-06T04:50:35.790Z,6.71
2018-12-06T04:53:03.939Z,6.85
2018-12-06T04:55:32.028Z,6.87
2018-12-06T04:58:00.227Z,6.80
2018-12-06T05:00:28.314Z,6.90
2018-12-06T05:02:56.396Z,6.75
2018-12-06T05:05:24.831Z,6.74
2018-12-06T05:07:53.589Z,6.83
2018-12-06T05:10:21.782Z,6.71
2018-12-06T05:12:49.921Z,6.86
2018-12-06T05:15:18.010Z,6.90
2018-12-06T05:17:46.104Z,6.93
2018-12-06T05:20:14.253Z,7.03
2018-12-06T05:22:42.343Z,7.06
2018-12-06T05:25:10.465Z,7.05
2018-12-06T05:27:38.640Z,7.10
2018-12-06T05:30:08.470Z,7.18
2018-12-06T05:32:36.714Z,7.37
2018-12-06T05:35:05.638Z,7.46
2018-12-06T05:37:33.791Z,7.30
2018-12-06T05:40:01.908Z,7.24
2018-12-06T05:42:30.030Z,7.22
2018-12-06T05:44:58.123Z,7.18
2018-12-06T05:47:26.281Z,7.09
2018-12-06T05:49:54.391Z,7.05
2018-12-06T05:52:22.547Z,7.17
2018-12-06T05:54:50.620Z,7.13
2018-12-06T05:57:18.822Z,7.07
2018-12-06T05:59:46.913Z,6.95
2018-12-06T06:02:15.007Z,6.94
2018-12-06T06:04:43.097Z,6.87
2018-12-06T06:07:11.154Z,6.88
2018-12-06T06:09:39.320Z,6.85
2018-12-06T06:12:07.558Z,6.92
2018-12-06T06:14:35.726Z,6.97
2018-12-06T06:17:03.844Z,7.05
2018-12-06T06:19:31.926Z,7.08
2018-12-06T06:22:00.099Z,7.14
2018-12-06T06:24:28.269Z,7.11
2018-12-06T06:26:56.369Z,7.09
2018-12-06T06:29:24.441Z,7.14
2018-12-06T06:31:52.609Z,7.15
2018-12-06T06:34:20.688Z,7.34
2018-12-06T06:36:48.785Z,7.37
2018-12-06T06:39:16.865Z,7.25
2018-12-06T06:41:45.029Z,7.26
2018-12-06T06:47:48.364Z,7.33
2018-12-06T06:50:16.614Z,7.42
2018-12-06T06:52:44.721Z,7.45
2018-12-06T06:55:12.835Z,7.35
2018-12-06T06:57:41.014Z,7.19
2018-12-06T07:00:09.328Z,7.17
2018-12-06T07:02:40.394Z,7.30
2018-12-06T07:05:08.609Z,7.17
2018-12-06T07:07:36.670Z,7.25
2018-12-06T07:10:05.933Z,7.28
2018-12-06T07:12:34.116Z,7.20
2018-12-06T07:15:02.282Z,7.21
2018-12-06T07:17:30.377Z,7.17
2018-12-06T07:19:58.462Z,7.17
2018-12-06T07:22:26.727Z,7.21
2018-12-06T07:24:54.855Z,7.19
2018-12-06T07:27:22.920Z,7.25
2018-12-06T07:29:51.107Z,7.35
2018-12-06T07:32:19.290Z,7.28
2018-12-06T07:34:47.443Z,7.39
2018-12-06T07:37:15.581Z,7.46
2018-12-06T07:39:43.673Z,7.55
2018-12-06T07:42:11.797Z,7.53
2018-12-06T07:44:39.878Z,7.52
2018-12-06T07:47:08.123Z,7.58
2018-12-06T07:49:36.365Z,7.49
2018-12-06T07:52:04.541Z,7.54
2018-12-06T07:54:32.642Z,7.56
2018-12-06T07:57:00.714Z,7.39
2018-12-06T07:59:28.887Z,7.35
2018-12-06T08:01:56.949Z,7.36
2018-12-06T08:04:25.030Z,7.39
2018-12-06T08:06:53.211Z,7.45
2018-12-06T08:09:21.591Z,7.55
2018-12-06T08:11:49.730Z,7.57
2018-12-06T08:14:17.795Z,7.62
2018-12-06T08:16:45.881Z,7.65
2018-12-06T08:19:14.109Z,7.77
2018-12-06T08:21:42.236Z,7.80
2018-12-06T08:24:10.359Z,7.81
2018-12-06T08:26:38.425Z,7.72
2018-12-06T08:29:06.579Z,7.73
2018-12-06T08:31:34.735Z,7.72
2018-12-06T08:34:06.187Z,7.59
2018-12-06T08:36:32.977Z,7.63
2018-12-06T08:39:01.080Z,7.75
2018-12-06T08:41:29.185Z,7.93
2018-12-06T08:43:57.270Z,7.97
2018-12-06T08:46:25.355Z,7.82
2018-12-06T08:48:53.441Z,7.75
2018-12-06T08:51:21.622Z,7.82
2018-12-06T08:53:49.721Z,7.78
2018-12-06T08:56:17.881Z,7.87
2018-12-06T08:58:46.043Z,7.92
2018-12-06T09:01:14.277Z,7.88
2018-12-06T09:03:42.361Z,7.85
2018-12-06T09:06:10.429Z,7.93
2018-12-06T09:08:38.507Z,7.99
2018-12-06T09:11:06.597Z,7.97
2018-12-06T09:13:34.736Z,7.96
2018-12-06T09:16:02.914Z,7.97
2018-12-06T09:18:31.003Z,7.96
2018-12-06T09:20:59.177Z,7.92
2018-12-06T09:23:27.573Z,8.00
2018-12-06T09:25:55.667Z,7.98
2018-12-06T09:28:23.842Z,7.89
2018-12-06T09:30:51.921Z,8.05
2018-12-06T09:33:20.106Z,8.10
2018-12-06T09:35:48.262Z,8.18
2018-12-06T09:38:16.338Z,8.28
2018-12-06T09:40:44.615Z,8.07
2018-12-06T09:43:12.698Z,8.08
2018-12-06T09:45:40.906Z,8.20
2018-12-06T09:48:09.219Z,8.02
2018-12-06T09:50:37.453Z,8.23
2018-12-06T09:53:05.601Z,8.16
2018-12-06T09:58:07.476Z,8.07
2018-12-06T10:00:35.580Z,8.19
2018-12-06T10:03:03.858Z,8.20
2018-12-06T10:05:32.078Z,8.11
2018-12-06T10:08:01.533Z,8.02
2018-12-06T10:10:29.754Z,8.22
2018-12-06T10:12:57.970Z,8.24
2018-12-06T10:15:26.771Z,8.26
2018-12-06T10:17:54.865Z,8.14
2018-12-06T10:20:23.029Z,8.24
2018-12-06T10:22:51.132Z,8.14
2018-12-06T10:25:19.284Z,8.28
2018-12-06T10:27:47.442Z,8.30
2018-12-06T10:30:15.600Z,8.27
2018-12-06T10:32:43.726Z,8.30
2018-12-06T10:35:12.006Z,8.40
2018-12-06T10:37:40.173Z,8.34
2018-12-06T10:40:08.446Z,8.46
2018-12-06T10:42:36.639Z,8.47
2018-12-06T10:45:05.610Z,8.45
2018-12-06T10:47:33.820Z,8.40
2018-12-06T10:50:02.045Z,8.52
2018-12-06T10:52:30.164Z,8.62
2018-12-06T10:54:58.336Z,8.65
2018-12-06T10:57:26.614Z,8.75
2018-12-06T10:59:54.775Z,8.88
2018-12-06T11:02:27.900Z,8.94
2018-12-06T11:04:55.980Z,8.86
2018-12-06T11:07:24.155Z,8.84
2018-12-06T11:09:52.318Z,8.92
2018-12-06T11:12:20.412Z,9.11
2018-12-06T11:14:48.595Z,9.35
2018-12-06T11:17:16.756Z,9.47
2018-12-06T11:19:45.095Z,9.48
2018-12-06T11:22:13.379Z,9.60
2018-12-06T11:24:41.595Z,9.59
2018-12-06T11:27:09.758Z,9.56
2018-12-06T11:29:37.905Z,9.53
2018-12-06T11:32:05.985Z,9.59
2018-12-06T11:34:34.083Z,9.51
2018-12-06T11:37:02.173Z,9.64
2018-12-06T11:39:42.179Z,9.74
2018-12-06T11:42:10.250Z,9.71
2018-12-06T11:44:38.349Z,9.81
2018-12-06T11:47:06.461Z,9.85
2018-12-06T11:49:34.574Z,9.90
2018-12-06T11:52:02.729Z,9.92
2018-12-06T11:54:30.863Z,9.89
2018-12-06T11:56:59.013Z,9.82
2018-12-06T11:59:27.111Z,9.76
2018-12-06T12:01:55.666Z,9.85
2018-12-06T12:04:24.658Z,9.91
2018-12-06T12:06:52.781Z,9.98
2018-12-06T12:09:20.895Z,10.04
2018-12-06T12:11:49.078Z,9.93
2018-12-06T12:14:17.207Z,10.04
2018-12-06T12:16:45.310Z,9.95
2018-12-06T12:19:13.481Z,10.02
2018-12-06T12:21:41.790Z,9.98
2018-12-06T12:24:09.889Z,10.02
2018-12-06T12:26:38.115Z,10.16
2018-12-06T12:29:06.398Z,10.09
2018-12-06T12:31:34.514Z,10.13
2018-12-06T12:34:02.665Z,10.07
2018-12-06T12:36:30.774Z,10.10
2018-12-06T12:38:58.963Z,10.14
2018-12-06T12:41:27.100Z,10.13
2018-12-06T12:43:55.328Z,10.23
2018-12-06T12:46:25.524Z,10.27
2018-12-06T12:48:53.634Z,10.28
2018-12-06T12:51:21.732Z,10.18
2018-12-06T12:53:49.797Z,10.23
2018-12-06T12:56:17.903Z,10.28
2018-12-06T12:58:45.998Z,10.31
2018-12-06T13:01:14.100Z,10.22
2018-12-06T13:03:42.247Z,10.25
2018-12-06T13:06:10.459Z,10.36
2018-12-06T13:08:38.611Z,10.21
2018-12-06T13:11:06.750Z,10.23
2018-12-06T13:13:34.844Z,10.15
2018-12-06T13:16:03.013Z,10.14
2018-12-06T13:18:31.242Z,10.21
2018-12-06T13:21:00.349Z,10.15
2018-12-06T13:23:28.430Z,10.24
2018-12-06T13:25:56.597Z,10.32
2018-12-06T13:28:24.770Z,10.33
2018-12-06T13:30:53.095Z,10.37
2018-12-06T13:33:21.195Z,10.42
2018-12-06T13:35:49.579Z,10.47
2018-12-06T13:38:17.649Z,10.52
2018-12-06T13:40:45.852Z,10.54
2018-12-06T13:43:14.042Z,10.66
2018-12-06T13:45:42.129Z,10.62
2018-12-06T13:48:10.322Z,10.68
2018-12-06T13:50:38.574Z,10.67
2018-12-06T13:53:06.782Z,10.69
2018-12-06T13:55:35.162Z,10.72
2018-12-06T13:58:03.523Z,10.79
2018-12-06T14:00:33.029Z,10.74
2018-12-06T14:03:01.721Z,10.73
2018-12-06T14:05:29.923Z,10.76
2018-12-06T14:07:58.238Z,10.88
2018-12-06T14:10:26.406Z,10.89
2018-12-06T14:12:54.546Z,10.88
2018-12-06T14:15:22.754Z,10.89
2018-12-06T14:17:50.893Z,10.95
2018-12-06T14:20:19.009Z,10.94
2018-12-06T14:22:47.222Z,10.93
2018-12-06T14:25:15.398Z,10.93
2018-12-06T14:27:43.513Z,10.96
2018-12-06T14:30:11.740Z,10.91
2018-12-06T14:32:40.046Z,10.93
2018-12-06T14:35:08.247Z,10.95
2018-12-06T14:37:36.391Z,10.94
2018-12-06T14:40:05.414Z,10.96
2018-12-06T14:42:33.688Z,10.87
2018-12-06T14:45:01.798Z,10.83
2018-12-06T14:47:29.962Z,10.83
2018-12-06T14:49:58.095Z,10.84
2018-12-06T14:52:26.226Z,10.86
2018-12-06T14:54:54.318Z,10.87
2018-12-06T14:57:22.417Z,10.84
2018-12-06T14:59:50.529Z,10.84
2018-12-06T15:02:18.757Z,10.85
2018-12-06T15:04:46.862Z,10.84
2018-12-06T15:07:14.972Z,10.83
2018-12-06T15:09:43.067Z,10.83
2018-12-06T15:12:11.179Z,10.87
2018-12-06T15:14:39.295Z,10.84
2018-12-06T15:17:07.393Z,10.85
2018-12-06T15:19:35.575Z,10.76
2018-12-06T15:22:03.697Z,10.77
2018-12-06T15:24:31.812Z,10.74
2018-12-06T15:27:06.947Z,10.72
2018-12-06T15:29:36.328Z,10.73
2018-12-06T15:32:05.556Z,10.71
2018-12-06T15:34:43.022Z,10.65
2018-12-06T15:37:11.753Z,10.68
2018-12-06T15:39:40.683Z,10.63
2018-12-06T15:42:10.898Z,10.65
2018-12-06T15:44:40.111Z,10.58
2018-12-06T15:47:11.899Z,10.58
2018-12-06T15:49:42.283Z,10.59
2018-12-06T15:52:10.636Z,10.50
2018-12-06T15:54:42.236Z,10.39
2018-12-06T15:57:12.433Z,10.39
2018-12-06T15:59:43.086Z,10.33
2018-12-06T16:02:12.780Z,10.30
2018-12-06T16:04:42.420Z,10.23
2018-12-06T16:07:14.434Z,10.31
2018-12-06T16:09:47.197Z,10.36
2018-12-06T16:12:19.270Z,10.23
2018-12-06T16:14:48.827Z,10.21
2018-12-06T16:17:24.085Z,10.21
2018-12-06T16:19:55.316Z,10.20
2018-12-06T16:22:25.033Z,10.20
2018-12-06T16:24:56.995Z,10.22
2018-12-06T16:27:27.239Z,10.26
2018-12-06T16:29:58.319Z,10.31
2018-12-06T16:32:27.875Z,10.34
2018-12-06T16:34:59.935Z,10.42
2018-12-06T16:37:36.035Z,10.50
2018-12-06T16:40:10.035Z,10.56
2018-12-06T16:42:44.484Z,10.60
2018-12-06T16:45:14.752Z,10.59
2018-12-06T16:47:44.531Z,10.66
2018-12-06T16:50:13.912Z,10.69
2018-12-06T16:52:51.092Z,10.72
2018-12-06T16:55:25.158Z,10.67
2018-12-06T16:57:55.235Z,10.67
2018-12-06T17:00:25.047Z,10.72
2018-12-06T17:02:59.581Z,10.76
2018-12-06T17:05:28.886Z,10.74
2018-12-06T17:08:00.783Z,10.82
2018-12-06T17:10:34.829Z,10.87
2018-12-06T17:13:04.931Z,10.95
2018-12-06T17:15:36.634Z,10.94
2018-12-06T17:18:27.882Z,10.89
2018-12-06T17:21:02.860Z,10.90
2018-12-06T17:23:41.312Z,10.94
2018-12-06T17:26:13.110Z,10.92
2018-12-06T17:28:46.790Z,10.97
2018-12-06T17:31:27.743Z,10.98
2018-12-06T17:37:38.261Z,11.01
2018-12-06T17:40:18.744Z,11.05
2018-12-06T17:43:01.436Z,10.97
2018-12-06T17:45:40.009Z,10.99
2018-12-06T17:48:10.157Z,10.92
2018-12-06T17:50:44.892Z,10.90
2018-12-06T17:53:15.007Z,10.92
2018-12-06T17:56:01.103Z,10.91
2018-12-06T17:58:36.016Z,10.86
2018-12-06T18:01:08.395Z,10.95
2018-12-06T18:03:50.084Z,10.95
2018-12-06T18:06:18.383Z,10.96
2018-12-06T18:08:49.510Z,10.96
2018-12-06T18:11:20.650Z,10.88
2018-12-06T18:13:59.702Z,10.95
2018-12-06T18:16:30.627Z,10.96
2018-12-06T18:18:59.550Z,10.99
2018-12-06T18:21:32.735Z,10.97
2018-12-06T18:24:03.542Z,11.02
2018-12-06T18:26:35.017Z,11.05
2018-12-06T18:29:05.254Z,11.03
2018-12-06T18:31:35.987Z,10.99
2018-12-06T18:34:08.265Z,10.99
2018-12-06T18:36:40.047Z,11.14
2018-12-06T18:39:11.143Z,11.02
2018-12-06T18:41:42.885Z,11.12
2018-12-06T18:44:16.047Z,11.10
2018-12-06T18:46:45.623Z,11.16
2018-12-06T18:49:15.176Z,11.18
2018-12-06T18:51:49.527Z,11.16
2018-12-06T18:54:19.011Z,11.19
2018-12-06T18:56:51.374Z,11.18
2018-12-06T18:59:21.723Z,11.28
2018-12-06T19:01:51.641Z,11.25
2018-12-06T19:04:24.421Z,11.22
2018-12-06T19:06:54.148Z,11.20
2018-12-06T19:09:23.666Z,11.23
2018-12-06T19:11:52.401Z,11.24
2018-12-06T19:14:22.151Z,11.22
2018-12-06T19:20:09.260Z,11.19
2018-12-06T19:22:47.485Z,11.19
2018-12-06T19:25:21.007Z,11.25
2018-12-06T19:27:54.130Z,11.30
2018-12-06T19:30:34.204Z,11.31
2018-12-06T19:33:07.903Z,11.37
2018-12-06T19:35:39.922Z,11.29
2018-12-06T19:38:13.262Z,11.36
2018-12-06T19:40:42.959Z,11.30
2018-12-06T19:43:11.376Z,11.28
2018-12-06T19:45:41.489Z,11.33
2018-12-06T19:48:19.836Z,11.39
2018-12-06T19:50:57.914Z,11.37
2018-12-06T19:53:28.949Z,11.39
2018-12-06T19:56:03.047Z,11.43
2018-12-06T19:58:32.217Z,11.46
2018-12-06T20:01:01.854Z,11.43
2018-12-06T20:03:33.229Z,11.39
2018-12-06T20:06:06.410Z,11.44
2018-12-06T20:08:37.490Z,11.41
2018-12-06T20:11:09.854Z,11.48
2018-12-06T20:16:15.800Z,11.50
2018-12-06T20:18:45.278Z,11.48
2018-12-06T20:21:15.625Z,11.55
2018-12-06T20:23:49.922Z,11.58
2018-12-06T20:26:20.489Z,11.55
2018-12-06T20:28:53.594Z,11.56
2018-12-06T20:31:25.909Z,11.58
2018-12-06T20:34:33.236Z,11.57
2018-12-06T20:37:05.504Z,11.59
2018-12-06T20:39:41.229Z,11.55
2018-12-06T20:42:17.019Z,11.63
2018-12-06T20:47:43.848Z,11.57
2018-12-06T20:50:17.660Z,11.58
2018-12-06T20:52:48.631Z,11.66
2018-12-06T20:55:20.067Z,11.63
2018-12-06T20:57:55.732Z,11.67
2018-12-06T21:00:29.375Z,11.63
2018-12-06T21:02:58.700Z,11.66
2018-12-06T21:05:27.829Z,11.62
2018-12-06T21:08:00.167Z,11.70
2018-12-06T21:10:31.434Z,11.76
2018-12-06T21:13:00.037Z,11.77
2018-12-06T21:15:30.488Z,11.78
2018-12-06T21:18:09.367Z,11.69
2018-12-06T21:20:47.577Z,11.79
2018-12-06T21:23:17.499Z,11.79
2018-12-06T21:25:47.761Z,11.78
2018-12-06T21:28:18.894Z,11.79
2018-12-06T21:30:52.962Z,11.82
2018-12-06T21:33:23.065Z,11.79
2018-12-06T21:35:58.094Z,11.77
2018-12-06T21:38:31.310Z,11.79
2018-12-06T21:41:02.164Z,11.82
2018-12-06T21:43:34.120Z,11.91
2018-12-06T21:46:05.768Z,11.84
2018-12-06T21:48:35.495Z,11.72
2018-12-06T21:51:10.406Z,11.77
2018-12-06T21:53:46.947Z,11.73
2018-12-06T21:56:21.156Z,11.77
2018-12-06T21:58:59.274Z,11.81
2018-12-06T22:01:31.058Z,11.83
2018-12-06T22:04:01.619Z,11.85
2018-12-06T22:06:34.192Z,11.78
2018-12-06T22:09:04.312Z,11.86
2018-12-06T22:11:37.025Z,11.90
2018-12-06T22:14:06.472Z,11.81
2018-12-06T22:16:35.101Z,11.84
2018-12-06T22:19:03.529Z,11.85
2018-12-06T22:21:33.832Z,11.89
2018-12-06T22:24:13.193Z,11.92
2018-12-06T22:26:41.597Z,11.89
2018-12-06T22:29:11.341Z,11.93
2018-12-06T22:31:48.301Z,11.96
2018-12-06T22:34:17.594Z,11.96
2018-12-06T22:36:47.413Z,11.98
2018-12-06T22:39:19.250Z,12.04
2018-12-06T22:41:48.275Z,11.98
2018-12-06T22:44:21.543Z,11.87
2018-12-06T22:46:52.921Z,11.87
2018-12-06T22:49:28.084Z,11.86
2018-12-06T22:51:57.010Z,11.95
2018-12-06T22:54:28.323Z,11.98
2018-12-06T22:57:00.919Z,11.93
2018-12-06T22:59:29.281Z,11.99
2018-12-06T23:02:07.960Z,11.93
2018-12-06T23:04:38.416Z,11.90
2018-12-06T23:07:08.862Z,11.92
2018-12-06T23:09:42.732Z,11.94
2018-12-06T23:12:16.660Z,11.97
2018-12-06T23:14:46.176Z,11.99
2018-12-06T23:17:15.522Z,11.99
2018-12-06T23:19:48.174Z,12.02
2018-12-06T23:22:17.966Z,12.01
2018-12-06T23:24:47.619Z,11.97
2018-12-06T23:27:19.288Z,12.02
2018-12-06T23:29:49.269Z,11.99
2018-12-06T23:32:20.704Z,12.01
2018-12-06T23:34:52.027Z,11.97
2018-12-06T23:37:22.525Z,11.99
2018-12-06T23:53:30.531Z,11.95
2018-12-06T23:59:08.168Z,12.04
